sensor_id;sensor_type;location;lat;lon;timestamp;pressure;altitude;pressure_sealevel;temperature;humidity
39223;BME280;24936;46.328;11.026;2023-06-01T00:01:47;94564.69;;;12.89;83.90
39223;BME280;24936;46.328;11.026;2023-06-01T00:04:13;94565.66;;;12.88;85.10
39223;BME280;24936;46.328;11.026;2023-06-01T00:06:39;94567.91;;;12.83;85.22
39223;BME280;24936;46.328;11.026;2023-06-01T00:09:05;94560.16;;;12.81;85.58
39223;BME280;24936;46.328;11.026;2023-06-01T00:11:31;94566.56;;;12.79;85.63
39223;BME280;24936;46.328;11.026;2023-06-01T00:13:57;94564.41;;;12.74;85.50
39223;BME280;24936;46.328;11.026;2023-06-01T00:16:22;94569.56;;;12.66;85.81
39223;BME280;24936;46.328;11.026;2023-06-01T00:18:48;94570.09;;;12.69;85.33
39223;BME280;24936;46.328;11.026;2023-06-01T00:21:14;94562.88;;;12.72;86.62
39223;BME280;24936;46.328;11.026;2023-06-01T00:23:40;94549.66;;;12.72;85.94
39223;BME280;24936;46.328;11.026;2023-06-01T00:26:06;94555.78;;;12.72;86.76
39223;BME280;24936;46.328;11.026;2023-06-01T00:28:32;94547.09;;;12.62;87.37
39223;BME280;24936;46.328;11.026;2023-06-01T00:30:57;94552.06;;;12.65;88.02
39223;BME280;24936;46.328;11.026;2023-06-01T00:33:23;94544.31;;;12.63;88.39
39223;BME280;24936;46.328;11.026;2023-06-01T00:35:49;94541.34;;;12.48;88.68
39223;BME280;24936;46.328;11.026;2023-06-01T00:38:15;94544.91;;;12.57;87.74
39223;BME280;24936;46.328;11.026;2023-06-01T00:40:40;94544.84;;;12.49;87.54
39223;BME280;24936;46.328;11.026;2023-06-01T00:43:06;94540.84;;;12.63;88.34
39223;BME280;24936;46.328;11.026;2023-06-01T00:45:31;94545.81;;;12.66;87.66
39223;BME280;24936;46.328;11.026;2023-06-01T00:47:57;94542.44;;;12.56;88.08
39223;BME280;24936;46.328;11.026;2023-06-01T00:50:24;94541.13;;;12.42;89.36
39223;BME280;24936;46.328;11.026;2023-06-01T00:52:50;94550.22;;;12.29;89.75
39223;BME280;24936;46.328;11.026;2023-06-01T00:55:16;94548.19;;;12.23;90.00
39223;BME280;24936;46.328;11.026;2023-06-01T00:57:45;94551.19;;;12.28;88.77
39223;BME280;24936;46.328;11.026;2023-06-01T01:00:11;94549.84;;;12.24;88.92
39223;BME280;24936;46.328;11.026;2023-06-01T01:02:41;94551.94;;;12.20;88.31
39223;BME280;24936;46.328;11.026;2023-06-01T01:05:10;94553.72;;;12.30;87.47
39223;BME280;24936;46.328;11.026;2023-06-01T01:07:42;94556.47;;;12.28;87.76
39223;BME280;24936;46.328;11.026;2023-06-01T01:12:49;94558.09;;;12.11;88.52
39223;BME280;24936;46.328;11.026;2023-06-01T01:18:05;94564.44;;;11.90;90.57
39223;BME280;24936;46.328;11.026;2023-06-01T01:20:44;94556.41;;;11.82;91.70
39223;BME280;24936;46.328;11.026;2023-06-01T01:26:24;94561.16;;;11.78;91.40
39223;BME280;24936;46.328;11.026;2023-06-01T01:28:56;94567.28;;;11.69;91.77
39223;BME280;24936;46.328;11.026;2023-06-01T01:31:24;94563.72;;;11.60;91.42
39223;BME280;24936;46.328;11.026;2023-06-01T01:33:53;94561.91;;;11.61;92.05
39223;BME280;24936;46.328;11.026;2023-06-01T01:36:21;94560.66;;;11.55;92.22
39223;BME280;24936;46.328;11.026;2023-06-01T01:38:46;94565.53;;;11.50;92.67
39223;BME280;24936;46.328;11.026;2023-06-01T01:41:12;94556.53;;;11.43;92.45
39223;BME280;24936;46.328;11.026;2023-06-01T01:43:38;94558.38;;;11.32;92.42
39223;BME280;24936;46.328;11.026;2023-06-01T01:48:39;94557.97;;;11.08;94.48
39223;BME280;24936;46.328;11.026;2023-06-01T01:51:16;94560.50;;;11.09;94.54
39223;BME280;24936;46.328;11.026;2023-06-01T01:53:45;94563.41;;;11.16;93.46
39223;BME280;24936;46.328;11.026;2023-06-01T01:56:11;94565.59;;;11.21;93.46
39223;BME280;24936;46.328;11.026;2023-06-01T01:58:39;94554.63;;;11.25;93.64
39223;BME280;24936;46.328;11.026;2023-06-01T02:01:06;94559.09;;;11.15;93.83
39223;BME280;24936;46.328;11.026;2023-06-01T02:03:33;94563.13;;;10.99;94.59
39223;BME280;24936;46.328;11.026;2023-06-01T02:05:58;94562.69;;;10.94;94.89
39223;BME280;24936;46.328;11.026;2023-06-01T02:08:24;94569.38;;;10.69;95.43
39223;BME280;24936;46.328;11.026;2023-06-01T02:10:49;94570.34;;;10.68;95.88
39223;BME280;24936;46.328;11.026;2023-06-01T02:13:15;94564.94;;;10.69;95.49
39223;BME280;24936;46.328;11.026;2023-06-01T02:15:40;94569.91;;;10.63;95.84
39223;BME280;24936;46.328;11.026;2023-06-01T02:18:06;94564.38;;;10.66;96.02
39223;BME280;24936;46.328;11.026;2023-06-01T02:20:32;94562.72;;;10.75;95.63
39223;BME280;24936;46.328;11.026;2023-06-01T02:22:58;94559.53;;;10.81;95.12
39223;BME280;24936;46.328;11.026;2023-06-01T02:25:23;94558.28;;;10.85;94.34
39223;BME280;24936;46.328;11.026;2023-06-01T02:27:48;94555.09;;;10.91;93.73
39223;BME280;24936;46.328;11.026;2023-06-01T02:30:14;94553.44;;;10.90;93.43
39223;BME280;24936;46.328;11.026;2023-06-01T02:32:39;94550.81;;;10.90;93.33
39223;BME280;24936;46.328;11.026;2023-06-01T02:35:05;94560.63;;;10.68;94.75
39223;BME280;24936;46.328;11.026;2023-06-01T02:37:32;94555.25;;;10.60;95.48
39223;BME280;24936;46.328;11.026;2023-06-01T02:39:57;94554.13;;;10.63;95.37
39223;BME280;24936;46.328;11.026;2023-06-01T02:42:23;94549.72;;;10.63;95.30
39223;BME280;24936;46.328;11.026;2023-06-01T02:44:48;94548.59;;;10.56;94.50
39223;BME280;24936;46.328;11.026;2023-06-01T02:47:14;94546.09;;;10.54;94.18
39223;BME280;24936;46.328;11.026;2023-06-01T02:49:39;94548.88;;;10.43;94.31
39223;BME280;24936;46.328;11.026;2023-06-01T02:52:05;94549.94;;;10.40;94.98
39223;BME280;24936;46.328;11.026;2023-06-01T02:54:31;94548.72;;;10.45;94.29
39223;BME280;24936;46.328;11.026;2023-06-01T02:56:56;94560.16;;;10.34;94.21
39223;BME280;24936;46.328;11.026;2023-06-01T02:59:22;94559.31;;;10.23;95.32
39223;BME280;24936;46.328;11.026;2023-06-01T03:01:47;94557.34;;;10.16;96.21
39223;BME280;24936;46.328;11.026;2023-06-01T03:04:13;94560.41;;;10.11;95.89
39223;BME280;24936;46.328;11.026;2023-06-01T03:06:40;94564.50;;;10.04;96.27
39223;BME280;24936;46.328;11.026;2023-06-01T03:09:06;94561.22;;;10.02;96.60
39223;BME280;24936;46.328;11.026;2023-06-01T03:11:41;94559.28;;;10.14;96.38
39223;BME280;24936;46.328;11.026;2023-06-01T03:14:07;94561.38;;;10.20;96.55
39223;BME280;24936;46.328;11.026;2023-06-01T03:16:33;94551.13;;;10.17;96.16
39223;BME280;24936;46.328;11.026;2023-06-01T03:18:58;94554.28;;;10.10;96.31
39223;BME280;24936;46.328;11.026;2023-06-01T03:21:23;94552.94;;;10.16;95.90
39223;BME280;24936;46.328;11.026;2023-06-01T03:23:50;94547.81;;;10.15;95.61
39223;BME280;24936;46.328;11.026;2023-06-01T03:26:15;94546.50;;;9.99;96.20
39223;BME280;24936;46.328;11.026;2023-06-01T03:28:44;94548.44;;;9.87;97.00
39223;BME280;24936;46.328;11.026;2023-06-01T03:31:10;94549.81;;;9.82;97.21
39223;BME280;24936;46.328;11.026;2023-06-01T03:33:37;94548.81;;;9.83;97.29
39223;BME280;24936;46.328;11.026;2023-06-01T03:36:03;94551.72;;;9.79;97.78
39223;BME280;24936;46.328;11.026;2023-06-01T03:38:30;94548.94;;;9.81;97.59
39223;BME280;24936;46.328;11.026;2023-06-01T03:40:55;94544.97;;;9.87;97.17
39223;BME280;24936;46.328;11.026;2023-06-01T03:43:21;94549.69;;;9.93;96.72
39223;BME280;24936;46.328;11.026;2023-06-01T03:45:46;94556.44;;;9.86;96.58
39223;BME280;24936;46.328;11.026;2023-06-01T03:48:12;94556.41;;;9.76;97.55
39223;BME280;24936;46.328;11.026;2023-06-01T03:50:37;94550.06;;;9.78;98.17
39223;BME280;24936;46.328;11.026;2023-06-01T03:53:03;94547.84;;;9.84;98.13
39223;BME280;24936;46.328;11.026;2023-06-01T03:55:28;94546.47;;;9.89;97.45
39223;BME280;24936;46.328;11.026;2023-06-01T03:57:55;94552.94;;;9.75;97.68
39223;BME280;24936;46.328;11.026;2023-06-01T04:00:20;94548.09;;;9.71;98.19
39223;BME280;24936;46.328;11.026;2023-06-01T04:02:50;94555.69;;;9.64;98.36
39223;BME280;24936;46.328;11.026;2023-06-01T04:05:18;94552.13;;;9.75;98.62
39223;BME280;24936;46.328;11.026;2023-06-01T04:07:47;94557.06;;;9.68;99.29
39223;BME280;24936;46.328;11.026;2023-06-01T04:10:14;94554.09;;;9.52;99.66
39223;BME280;24936;46.328;11.026;2023-06-01T04:12:42;94565.13;;;9.45;100.00
39223;BME280;24936;46.328;11.026;2023-06-01T04:15:09;94569.13;;;9.71;100.00
39223;BME280;24936;46.328;11.026;2023-06-01T04:17:40;94560.13;;;9.73;99.61
39223;BME280;24936;46.328;11.026;2023-06-01T04:20:08;94562.75;;;9.73;99.65
39223;BME280;24936;46.328;11.026;2023-06-01T04:22:36;94569.38;;;9.68;99.88
39223;BME280;24936;46.328;11.026;2023-06-01T04:25:02;94560.63;;;9.57;100.00
39223;BME280;24936;46.328;11.026;2023-06-01T04:27:27;94557.06;;;9.68;100.00
39223;BME280;24936;46.328;11.026;2023-06-01T04:29:53;94554.16;;;9.71;100.00
39223;BME280;24936;46.328;11.026;2023-06-01T04:32:19;94551.97;;;9.76;100.00
39223;BME280;24936;46.328;11.026;2023-06-01T04:34:50;94553.66;;;9.77;100.00
39223;BME280;24936;46.328;11.026;2023-06-01T04:37:16;94551.63;;;9.60;100.00
39223;BME280;24936;46.328;11.026;2023-06-01T04:39:45;94553.09;;;9.74;100.00
39223;BME280;24936;46.328;11.026;2023-06-01T04:42:14;94545.91;;;9.86;100.00
39223;BME280;24936;46.328;11.026;2023-06-01T04:44:41;94548.53;;;9.86;100.00
39223;BME280;24936;46.328;11.026;2023-06-01T04:47:07;94546.22;;;9.92;100.00
39223;BME280;24936;46.328;11.026;2023-06-01T04:49:32;94540.97;;;9.92;100.00
39223;BME280;24936;46.328;11.026;2023-06-01T04:51:58;94549.03;;;10.01;99.87
39223;BME280;24936;46.328;11.026;2023-06-01T04:54:25;94541.72;;;10.14;99.18
39223;BME280;24936;46.328;11.026;2023-06-01T04:56:50;94541.19;;;10.30;99.20
39223;BME280;24936;46.328;11.026;2023-06-01T04:59:16;94541.88;;;10.32;99.19
39223;BME280;24936;46.328;11.026;2023-06-01T05:01:42;94536.66;;;10.52;99.35
39223;BME280;24936;46.328;11.026;2023-06-01T05:04:07;94535.97;;;10.60;98.86
39223;BME280;24936;46.328;11.026;2023-06-01T05:06:33;94528.63;;;10.73;98.29
39223;BME280;24936;46.328;11.026;2023-06-01T05:08:58;94534.16;;;10.99;96.64
39223;BME280;24936;46.328;11.026;2023-06-01T05:11:24;94536.09;;;11.07;96.11
39223;BME280;24936;46.328;11.026;2023-06-01T05:13:49;94537.91;;;10.97;96.65
39223;BME280;24936;46.328;11.026;2023-06-01T05:16:16;94535.81;;;10.91;97.21
39223;BME280;24936;46.328;11.026;2023-06-01T05:18:42;94531.41;;;10.91;97.31
39223;BME280;24936;46.328;11.026;2023-06-01T05:21:07;94535.81;;;11.00;95.96
39223;BME280;24936;46.328;11.026;2023-06-01T05:23:33;94535.94;;;11.09;94.88
39223;BME280;24936;46.328;11.026;2023-06-01T05:25:58;94534.13;;;11.19;94.77
39223;BME280;24936;46.328;11.026;2023-06-01T05:28:31;94532.19;;;11.21;94.66
39223;BME280;24936;46.328;11.026;2023-06-01T05:30:57;94528.28;;;11.25;94.79
39223;BME280;24936;46.328;11.026;2023-06-01T05:33:23;94527.75;;;11.22;95.39
39223;BME280;24936;46.328;11.026;2023-06-01T05:35:48;94525.09;;;11.31;96.06
39223;BME280;24936;46.328;11.026;2023-06-01T05:38:14;94529.66;;;11.39;96.93
39223;BME280;24936;46.328;11.026;2023-06-01T05:43:35;94519.53;;;11.35;98.43
39223;BME280;24936;46.328;11.026;2023-06-01T05:46:11;94518.25;;;11.39;98.43
39223;BME280;24936;46.328;11.026;2023-06-01T05:48:36;94521.31;;;11.44;96.97
39223;BME280;24936;46.328;11.026;2023-06-01T05:51:02;94527.91;;;11.58;95.98
39223;BME280;24936;46.328;11.026;2023-06-01T05:53:27;94520.09;;;11.76;92.65
39223;BME280;24936;46.328;11.026;2023-06-01T05:55:53;94524.28;;;11.97;91.60
39223;BME280;24936;46.328;11.026;2023-06-01T05:58:19;94520.78;;;12.06;90.17
39223;BME280;24936;46.328;11.026;2023-06-01T06:00:44;94524.91;;;12.18;90.21
39223;BME280;24936;46.328;11.026;2023-06-01T06:03:10;94524.53;;;12.31;89.72
39223;BME280;24936;46.328;11.026;2023-06-01T06:05:36;94521.44;;;12.36;89.87
39223;BME280;24936;46.328;11.026;2023-06-01T06:08:01;94525.97;;;12.44;90.39
39223;BME280;24936;46.328;11.026;2023-06-01T06:10:27;94518.91;;;12.44;89.74
39223;BME280;24936;46.328;11.026;2023-06-01T06:12:53;94516.09;;;12.46;90.72
39223;BME280;24936;46.328;11.026;2023-06-01T06:15:19;94515.94;;;12.47;92.01
39223;BME280;24936;46.328;11.026;2023-06-01T06:20:10;94520.47;;;12.55;89.27
39223;BME280;24936;46.328;11.026;2023-06-01T06:22:37;94516.38;;;12.61;88.61
39223;BME280;24936;46.328;11.026;2023-06-01T06:25:04;94519.50;;;12.74;89.44
39223;BME280;24936;46.328;11.026;2023-06-01T06:27:29;94525.38;;;12.86;90.42
39223;BME280;24936;46.328;11.026;2023-06-01T06:29:55;94514.56;;;12.97;89.71
39223;BME280;24936;46.328;11.026;2023-06-01T06:32:21;94516.44;;;13.05;90.36
39223;BME280;24936;46.328;11.026;2023-06-01T06:34:47;94512.50;;;13.09;88.89
39223;BME280;24936;46.328;11.026;2023-06-01T06:37:12;94510.88;;;13.16;87.02
39223;BME280;24936;46.328;11.026;2023-06-01T06:39:38;94516.75;;;13.28;87.21
39223;BME280;24936;46.328;11.026;2023-06-01T06:42:04;94516.06;;;13.44;85.49
39223;BME280;24936;46.328;11.026;2023-06-01T06:44:31;94508.09;;;13.63;84.91
39223;BME280;24936;46.328;11.026;2023-06-01T06:46:59;94502.72;;;13.54;85.40
39223;BME280;24936;46.328;11.026;2023-06-01T06:49:26;94493.50;;;13.58;85.15
39223;BME280;24936;46.328;11.026;2023-06-01T06:51:51;94499.38;;;13.70;85.18
39223;BME280;24936;46.328;11.026;2023-06-01T06:54:17;94496.72;;;13.70;85.17
39223;BME280;24936;46.328;11.026;2023-06-01T06:56:42;94499.88;;;13.82;83.67
39223;BME280;24936;46.328;11.026;2023-06-01T06:59:08;94494.00;;;13.97;81.59
39223;BME280;24936;46.328;11.026;2023-06-01T07:01:34;94501.81;;;14.15;81.74
39223;BME280;24936;46.328;11.026;2023-06-01T07:04:01;94495.75;;;14.31;82.60
39223;BME280;24936;46.328;11.026;2023-06-01T07:06:27;94493.63;;;14.34;83.76
39223;BME280;24936;46.328;11.026;2023-06-01T07:08:52;94502.59;;;14.50;83.65
39223;BME280;24936;46.328;11.026;2023-06-01T07:11:18;94495.13;;;14.53;83.68
39223;BME280;24936;46.328;11.026;2023-06-01T07:13:44;94498.94;;;14.59;83.47
39223;BME280;24936;46.328;11.026;2023-06-01T07:16:10;94490.84;;;14.61;83.28
39223;BME280;24936;46.328;11.026;2023-06-01T07:18:36;94491.50;;;14.63;82.55
39223;BME280;24936;46.328;11.026;2023-06-01T07:21:02;94497.47;;;14.65;81.87
39223;BME280;24936;46.328;11.026;2023-06-01T07:23:28;94489.56;;;14.73;80.98
39223;BME280;24936;46.328;11.026;2023-06-01T07:25:53;94492.56;;;14.87;80.91
39223;BME280;24936;46.328;11.026;2023-06-01T07:28:19;94490.38;;;14.90;79.37
39223;BME280;24936;46.328;11.026;2023-06-01T07:30:44;94487.56;;;14.92;79.04
39223;BME280;24936;46.328;11.026;2023-06-01T07:33:10;94482.78;;;14.95;79.62
39223;BME280;24936;46.328;11.026;2023-06-01T07:35:36;94480.97;;;15.04;77.06
39223;BME280;24936;46.328;11.026;2023-06-01T07:38:01;94484.41;;;15.13;76.56
39223;BME280;24936;46.328;11.026;2023-06-01T07:40:29;94473.97;;;15.28;75.19
39223;BME280;24936;46.328;11.026;2023-06-01T07:42:55;94473.38;;;15.57;75.65
39223;BME280;24936;46.328;11.026;2023-06-01T07:45:21;94468.94;;;16.06;74.27
39223;BME280;24936;46.328;11.026;2023-06-01T07:47:47;94467.78;;;16.32;74.14
39223;BME280;24936;46.328;11.026;2023-06-01T07:50:12;94462.38;;;16.48;70.25
39223;BME280;24936;46.328;11.026;2023-06-01T07:52:38;94459.44;;;16.66;70.38
39223;BME280;24936;46.328;11.026;2023-06-01T07:55:03;94454.22;;;17.20;68.12
39223;BME280;24936;46.328;11.026;2023-06-01T07:57:29;94462.00;;;17.36;67.05
39223;BME280;24936;46.328;11.026;2023-06-01T07:59:55;94450.53;;;17.81;63.88
39223;BME280;24936;46.328;11.026;2023-06-01T08:02:21;94446.44;;;18.30;64.50
39223;BME280;24936;46.328;11.026;2023-06-01T08:04:50;94440.50;;;18.71;65.40
39223;BME280;24936;46.328;11.026;2023-06-01T08:07:16;94440.59;;;19.00;62.55
39223;BME280;24936;46.328;11.026;2023-06-01T08:09:44;94439.97;;;19.90;62.05
39223;BME280;24936;46.328;11.026;2023-06-01T08:12:09;94434.59;;;20.31;60.13
39223;BME280;24936;46.328;11.026;2023-06-01T08:14:36;94431.63;;;21.42;58.75
39223;BME280;24936;46.328;11.026;2023-06-01T08:17:03;94431.81;;;22.26;55.46
39223;BME280;24936;46.328;11.026;2023-06-01T08:19:29;94429.69;;;22.81;52.66
39223;BME280;24936;46.328;11.026;2023-06-01T08:21:54;94426.59;;;22.45;51.90
39223;BME280;24936;46.328;11.026;2023-06-01T08:24:20;94420.69;;;21.50;55.45
39223;BME280;24936;46.328;11.026;2023-06-01T08:26:48;94425.25;;;21.36;57.57
39223;BME280;24936;46.328;11.026;2023-06-01T08:29:14;94420.31;;;21.33;52.97
39223;BME280;24936;46.328;11.026;2023-06-01T08:31:39;94418.47;;;21.00;52.92
39223;BME280;24936;46.328;11.026;2023-06-01T08:34:05;94405.88;;;21.48;54.07
39223;BME280;24936;46.328;11.026;2023-06-01T08:36:31;94409.63;;;21.20;59.62
39223;BME280;24936;46.328;11.026;2023-06-01T08:38:56;94402.59;;;21.32;59.70
39223;BME280;24936;46.328;11.026;2023-06-01T08:41:45;94410.34;;;22.72;54.19
39223;BME280;24936;46.328;11.026;2023-06-01T08:44:15;94401.97;;;23.81;51.66
39223;BME280;24936;46.328;11.026;2023-06-01T08:46:42;94413.19;;;25.07;51.02
39223;BME280;24936;46.328;11.026;2023-06-01T08:49:10;94401.75;;;25.71;45.10
39223;BME280;24936;46.328;11.026;2023-06-01T08:51:38;94400.19;;;26.40;43.45
39223;BME280;24936;46.328;11.026;2023-06-01T08:54:05;94395.84;;;27.65;42.10
39223;BME280;24936;46.328;11.026;2023-06-01T08:56:34;94387.81;;;28.59;36.90
39223;BME280;24936;46.328;11.026;2023-06-01T08:59:00;94397.25;;;27.90;39.02
39223;BME280;24936;46.328;11.026;2023-06-01T09:01:26;94394.25;;;28.53;37.30
39223;BME280;24936;46.328;11.026;2023-06-01T09:03:52;94392.50;;;26.32;42.99
39223;BME280;24936;46.328;11.026;2023-06-01T09:06:18;94388.06;;;26.54;44.57
39223;BME280;24936;46.328;11.026;2023-06-01T09:08:45;94390.25;;;25.88;43.99
39223;BME280;24936;46.328;11.026;2023-06-01T09:11:11;94392.53;;;26.20;45.71
39223;BME280;24936;46.328;11.026;2023-06-01T09:13:38;94394.78;;;26.69;44.59
39223;BME280;24936;46.328;11.026;2023-06-01T09:16:05;94386.03;;;26.33;47.94
39223;BME280;24936;46.328;11.026;2023-06-01T09:18:31;94383.94;;;25.70;45.64
39223;BME280;24936;46.328;11.026;2023-06-01T09:21:17;94387.72;;;25.45;46.80
39223;BME280;24936;46.328;11.026;2023-06-01T09:23:43;94384.28;;;25.74;42.81
39223;BME280;24936;46.328;11.026;2023-06-01T09:26:13;94379.28;;;25.42;44.36
39223;BME280;24936;46.328;11.026;2023-06-01T09:28:58;94376.78;;;24.93;47.96
39223;BME280;24936;46.328;11.026;2023-06-01T09:31:37;94375.44;;;24.71;49.65
39223;BME280;24936;46.328;11.026;2023-06-01T09:34:03;94376.22;;;23.92;48.37
39223;BME280;24936;46.328;11.026;2023-06-01T09:36:29;94372.56;;;24.05;49.80
39223;BME280;24936;46.328;11.026;2023-06-01T09:39:09;94371.50;;;23.32;53.13
39223;BME280;24936;46.328;11.026;2023-06-01T09:41:49;94372.13;;;23.52;47.90
39223;BME280;24936;46.328;11.026;2023-06-01T09:44:26;94370.63;;;24.12;51.19
39223;BME280;24936;46.328;11.026;2023-06-01T09:46:56;94360.56;;;23.52;50.45
39223;BME280;24936;46.328;11.026;2023-06-01T09:49:30;94360.63;;;23.82;52.88
39223;BME280;24936;46.328;11.026;2023-06-01T09:54:38;94359.66;;;24.45;51.28
39223;BME280;24936;46.328;11.026;2023-06-01T09:57:26;94343.31;;;24.16;46.94
39223;BME280;24936;46.328;11.026;2023-06-01T09:59:54;94347.22;;;26.63;44.83
39223;BME280;24936;46.328;11.026;2023-06-01T10:02:21;94340.13;;;25.75;40.07
39223;BME280;24936;46.328;11.026;2023-06-01T10:04:52;94336.28;;;26.00;42.03
39223;BME280;24936;46.328;11.026;2023-06-01T10:07:50;94334.06;;;25.44;41.72
39223;BME280;24936;46.328;11.026;2023-06-01T10:10:18;94336.84;;;25.37;38.49
39223;BME280;24936;46.328;11.026;2023-06-01T10:12:44;94329.03;;;26.00;37.10
39223;BME280;24936;46.328;11.026;2023-06-01T10:15:10;94314.28;;;25.02;42.59
39223;BME280;24936;46.328;11.026;2023-06-01T10:18:14;94314.44;;;24.65;43.64
39223;BME280;24936;46.328;11.026;2023-06-01T10:20:41;94315.81;;;24.44;45.71
39223;BME280;24936;46.328;11.026;2023-06-01T10:23:07;94322.34;;;24.91;45.82
39223;BME280;24936;46.328;11.026;2023-06-01T10:25:38;94311.03;;;25.00;43.48
39223;BME280;24936;46.328;11.026;2023-06-01T10:28:06;94313.91;;;24.87;48.84
39223;BME280;24936;46.328;11.026;2023-06-01T10:30:35;94311.47;;;24.97;43.44
39223;BME280;24936;46.328;11.026;2023-06-01T10:33:01;94309.47;;;25.04;45.42
39223;BME280;24936;46.328;11.026;2023-06-01T10:40:43;94302.09;;;27.88;40.74
39223;BME280;24936;46.328;11.026;2023-06-01T10:46:39;94296.91;;;30.61;32.07
39223;BME280;24936;46.328;11.026;2023-06-01T10:49:06;94293.63;;;31.52;29.41
39223;BME280;24936;46.328;11.026;2023-06-01T10:51:31;94289.84;;;31.37;29.03
39223;BME280;24936;46.328;11.026;2023-06-01T10:54:37;94292.47;;;30.18;29.18
39223;BME280;24936;46.328;11.026;2023-06-01T10:57:22;94284.50;;;29.91;31.35
39223;BME280;24936;46.328;11.026;2023-06-01T11:00:25;94279.72;;;30.14;29.98
39223;BME280;24936;46.328;11.026;2023-06-01T11:03:16;94276.97;;;31.64;31.95
39223;BME280;24936;46.328;11.026;2023-06-01T11:08:53;94269.81;;;29.77;32.11
39223;BME280;24936;46.328;11.026;2023-06-01T11:11:19;94266.06;;;28.59;34.41
39223;BME280;24936;46.328;11.026;2023-06-01T11:14:05;94260.09;;;28.90;34.89
39223;BME280;24936;46.328;11.026;2023-06-01T11:16:31;94265.84;;;30.05;35.28
39223;BME280;24936;46.328;11.026;2023-06-01T11:19:01;94258.97;;;29.82;34.27
39223;BME280;24936;46.328;11.026;2023-06-01T11:21:39;94257.03;;;28.76;39.08
39223;BME280;24936;46.328;11.026;2023-06-01T11:24:17;94252.81;;;28.63;33.64
39223;BME280;24936;46.328;11.026;2023-06-01T11:26:46;94255.47;;;28.03;34.56
39223;BME280;24936;46.328;11.026;2023-06-01T11:29:17;94247.47;;;30.28;28.13
39223;BME280;24936;46.328;11.026;2023-06-01T11:31:53;94241.47;;;31.34;29.04
39223;BME280;24936;46.328;11.026;2023-06-01T11:34:36;94240.94;;;31.37;25.16
39223;BME280;24936;46.328;11.026;2023-06-01T11:37:17;94236.13;;;32.40;26.23
39223;BME280;24936;46.328;11.026;2023-06-01T11:39:46;94237.72;;;32.01;25.23
39223;BME280;24936;46.328;11.026;2023-06-01T11:42:14;94236.97;;;32.35;27.25
39223;BME280;24936;46.328;11.026;2023-06-01T11:44:43;94235.44;;;31.53;28.41
39223;BME280;24936;46.328;11.026;2023-06-01T11:47:10;94232.97;;;32.22;26.95
39223;BME280;24936;46.328;11.026;2023-06-01T11:49:54;94230.84;;;32.93;27.22
39223;BME280;24936;46.328;11.026;2023-06-01T11:52:20;94227.94;;;32.45;25.21
39223;BME280;24936;46.328;11.026;2023-06-01T11:54:46;94224.44;;;31.89;27.05
39223;BME280;24936;46.328;11.026;2023-06-01T11:57:13;94216.13;;;33.19;25.89
39223;BME280;24936;46.328;11.026;2023-06-01T11:59:46;94226.06;;;30.73;26.92
39223;BME280;24936;46.328;11.026;2023-06-01T12:02:23;94218.19;;;30.61;27.48
39223;BME280;24936;46.328;11.026;2023-06-01T12:05:07;94215.63;;;29.92;26.31
39223;BME280;24936;46.328;11.026;2023-06-01T12:07:46;94212.78;;;30.56;28.44
39223;BME280;24936;46.328;11.026;2023-06-01T12:10:13;94200.75;;;31.03;27.43
39223;BME280;24936;46.328;11.026;2023-06-01T12:12:41;94202.34;;;29.27;32.39
39223;BME280;24936;46.328;11.026;2023-06-01T12:15:10;94195.41;;;29.36;30.24
39223;BME280;24936;46.328;11.026;2023-06-01T12:17:51;94202.34;;;29.27;30.13
39223;BME280;24936;46.328;11.026;2023-06-01T12:20:28;94203.34;;;28.35;30.97
39223;BME280;24936;46.328;11.026;2023-06-01T12:22:55;94208.03;;;27.01;36.88
39223;BME280;24936;46.328;11.026;2023-06-01T12:25:24;94194.81;;;28.21;33.73
39223;BME280;24936;46.328;11.026;2023-06-01T12:28:02;94191.03;;;30.30;30.91
39223;BME280;24936;46.328;11.026;2023-06-01T12:30:28;94192.94;;;30.45;27.24
39223;BME280;24936;46.328;11.026;2023-06-01T12:32:53;94186.97;;;30.89;29.64
39223;BME280;24936;46.328;11.026;2023-06-01T12:35:19;94191.84;;;30.25;28.04
39223;BME280;24936;46.328;11.026;2023-06-01T12:38:03;94179.63;;;30.12;28.58
39223;BME280;24936;46.328;11.026;2023-06-01T12:40:28;94175.84;;;30.24;32.00
39223;BME280;24936;46.328;11.026;2023-06-01T12:43:04;94176.91;;;30.12;28.61
39223;BME280;24936;46.328;11.026;2023-06-01T12:45:40;94182.78;;;29.73;27.66
39223;BME280;24936;46.328;11.026;2023-06-01T12:48:07;94181.69;;;29.69;29.71
39223;BME280;24936;46.328;11.026;2023-06-01T12:50:33;94182.69;;;29.42;30.57
39223;BME280;24936;46.328;11.026;2023-06-01T12:52:58;94177.34;;;29.78;29.68
39223;BME280;24936;46.328;11.026;2023-06-01T12:55:27;94169.72;;;29.65;30.36
39223;BME280;24936;46.328;11.026;2023-06-01T12:57:54;94172.56;;;29.96;29.22
39223;BME280;24936;46.328;11.026;2023-06-01T13:00:25;94177.53;;;28.92;31.76
39223;BME280;24936;46.328;11.026;2023-06-01T13:02:51;94156.69;;;28.55;33.28
39223;BME280;24936;46.328;11.026;2023-06-01T13:05:17;94159.38;;;28.17;31.92
39223;BME280;24936;46.328;11.026;2023-06-01T13:07:49;94160.88;;;28.35;32.69
39223;BME280;24936;46.328;11.026;2023-06-01T13:10:14;94156.06;;;28.43;33.57
39223;BME280;24936;46.328;11.026;2023-06-01T13:12:41;94149.19;;;28.67;34.34
39223;BME280;24936;46.328;11.026;2023-06-01T13:15:07;94144.88;;;28.01;31.59
39223;BME280;24936;46.328;11.026;2023-06-01T13:17:34;94150.97;;;27.86;35.35
39223;BME280;24936;46.328;11.026;2023-06-01T13:20:17;94140.63;;;27.78;33.61
39223;BME280;24936;46.328;11.026;2023-06-01T13:22:51;94151.38;;;28.00;35.83
39223;BME280;24936;46.328;11.026;2023-06-01T13:25:18;94140.91;;;27.32;34.63
39223;BME280;24936;46.328;11.026;2023-06-01T13:28:12;94137.28;;;27.21;35.44